Time;durP1;ratioP1;P1;durP2;ratioP2;P2;SDS_P1;SDS_P2;PMS_P1;PMS_P2;Temp;Humidity;BMP_temperature;BMP_pressure;BME280_temperature;BME280_humidity;BME280_pressure;Samples;Min_cycle;Max_cycle;Signal;HPM_P1;HPM_P2
2022/07/07 00:01:26;;;;;;;7.30;3.50;;;15.80;99.90;;;;;;5031418;28;20061;-84
2022/07/07 00:03:53;;;;;;;12.32;4.05;;;15.80;99.90;;;;;;5032385;28;20190;-84
2022/07/07 00:06:19;;;;;;;19.33;4.60;;;15.70;99.90;;;;;;5031813;28;20033;-84
2022/07/07 00:08:47;;;;;;;6.97;3.72;;;15.60;99.90;;;;;;5031119;28;20041;-83
2022/07/07 00:11:14;;;;;;;8.75;3.58;;;15.60;99.90;;;;;;5031172;28;20052;-84
2022/07/07 00:13:40;;;;;;;5.68;4.03;;;15.60;99.90;;;;;;5028632;28;20485;-82
2022/07/07 00:16:06;;;;;;;5.97;4.13;;;15.60;99.90;;;;;;5013283;28;20093;-85
2022/07/07 00:18:32;;;;;;;4.20;3.13;;;15.50;99.90;;;;;;5014020;28;20436;-83
2022/07/07 00:20:57;;;;;;;6.03;3.75;;;15.50;99.90;;;;;;5013030;28;20034;-83
2022/07/07 00:23:23;;;;;;;4.80;3.97;;;15.60;99.90;;;;;;5013807;28;20026;-84
2022/07/07 00:25:50;;;;;;;16.20;5.55;;;15.60;99.90;;;;;;5012798;28;20393;-83
2022/07/07 00:28:15;;;;;;;6.18;3.90;;;15.60;99.90;;;;;;5013999;28;20153;-83
2022/07/07 00:30:42;;;;;;;7.15;3.88;;;15.60;99.90;;;;;;5028375;28;20525;-83
2022/07/07 00:33:08;;;;;;;6.38;4.22;;;15.60;99.90;;;;;;5012270;28;20030;-84
2022/07/07 00:35:33;;;;;;;5.10;4.05;;;15.60;99.90;;;;;;5013411;28;20152;-83
2022/07/07 00:37:59;;;;;;;7.47;4.28;;;15.60;99.90;;;;;;5013342;28;20026;-85
2022/07/07 00:40:25;;;;;;;5.68;4.55;;;15.60;99.90;;;;;;5011364;28;20535;-83
2022/07/07 00:42:50;;;;;;;5.35;3.78;;;15.70;99.90;;;;;;5013345;28;20103;-82
2022/07/07 00:45:16;;;;;;;5.03;4.13;;;15.70;99.90;;;;;;5013599;28;20029;-84
2022/07/07 00:47:42;;;;;;;4.97;3.90;;;15.80;99.90;;;;;;5011924;28;20450;-83
2022/07/07 00:50:10;;;;;;;8.60;4.15;;;15.80;99.90;;;;;;5013678;28;20033;-83
2022/07/07 00:52:36;;;;;;;15.30;4.35;;;15.80;99.90;;;;;;5013092;28;20022;-84
2022/07/07 00:55:02;;;;;;;6.35;3.85;;;15.90;99.90;;;;;;5012051;28;20040;-83
2022/07/07 00:57:28;;;;;;;5.80;3.90;;;15.90;99.90;;;;;;5011907;28;20038;-84
2022/07/07 00:59:58;;;;;;;8.73;3.83;;;16.00;99.90;;;;;;5011804;28;20463;-82
2022/07/07 01:02:28;;;;;;;10.77;4.18;;;15.90;99.90;;;;;;5026736;28;20440;-84
2022/07/07 01:04:54;;;;;;;5.53;3.65;;;15.90;99.90;;;;;;5010265;28;20018;-83
2022/07/07 01:07:20;;;;;;;10.65;3.92;;;15.90;99.90;;;;;;5011347;28;20101;-85
2022/07/07 01:09:46;;;;;;;7.68;3.72;;;15.80;99.90;;;;;;5011065;28;20028;-83
2022/07/07 01:12:12;;;;;;;9.93;4.97;;;15.80;99.90;;;;;;5010812;28;20100;-83
2022/07/07 01:14:39;;;;;;;5.80;3.97;;;15.70;99.90;;;;;;5011468;28;20137;-82
2022/07/07 01:17:05;;;;;;;11.23;4.18;;;15.80;99.90;;;;;;5013434;28;20029;-84
2022/07/07 01:19:31;;;;;;;7.60;3.60;;;15.80;99.90;;;;;;5013664;28;20485;-84
2022/07/07 01:22:27;;;;;;;7.63;3.13;;;15.90;99.90;;;;;;5014946;28;20033;-83
2022/07/07 01:24:53;;;;;;;8.57;3.53;;;15.90;99.90;;;;;;5000392;28;20029;-84
2022/07/07 01:27:20;;;;;;;12.75;4.35;;;15.80;99.90;;;;;;5014859;28;20104;-83
2022/07/07 01:29:53;;;;;;;11.82;3.92;;;15.80;99.90;;;;;;5014116;28;20037;-84
2022/07/07 01:32:20;;;;;;;5.45;4.07;;;15.80;99.90;;;;;;5014139;28;20025;-83
2022/07/07 01:34:46;;;;;;;10.32;3.50;;;15.80;99.90;;;;;;5012624;28;20044;-83
2022/07/07 01:37:13;;;;;;;9.52;3.63;;;15.80;99.90;;;;;;5010893;28;20026;-84
2022/07/07 01:39:40;;;;;;;5.50;3.58;;;15.80;99.90;;;;;;5009874;28;20053;-84
2022/07/07 01:42:07;;;;;;;5.70;3.28;;;15.80;99.90;;;;;;5010172;28;20060;-83
2022/07/07 01:44:34;;;;;;;11.10;3.15;;;15.80;99.90;;;;;;5011168;28;20473;-83
2022/07/07 01:47:00;;;;;;;6.22;3.35;;;15.80;99.90;;;;;;5026111;28;20042;-84
2022/07/07 01:49:27;;;;;;;9.57;3.90;;;15.80;99.90;;;;;;5011174;28;20014;-82
2022/07/07 01:51:53;;;;;;;7.88;3.63;;;15.80;99.90;;;;;;5011241;28;20022;-83
2022/07/07 01:54:19;;;;;;;5.43;3.40;;;15.90;99.90;;;;;;5010824;28;20044;-83
2022/07/07 01:56:45;;;;;;;6.65;3.20;;;15.80;99.90;;;;;;5012136;28;20037;-82
2022/07/07 01:59:11;;;;;;;3.50;3.17;;;15.80;99.90;;;;;;5012319;28;20019;-84
2022/07/07 02:01:37;;;;;;;6.07;3.80;;;15.70;99.90;;;;;;5010728;28;20604;-84
2022/07/07 02:04:03;;;;;;;13.02;3.83;;;15.70;99.90;;;;;;5010404;28;20446;-84
2022/07/07 02:06:29;;;;;;;9.05;3.83;;;15.60;99.90;;;;;;5010673;28;20030;-83
2022/07/07 02:08:55;;;;;;;6.18;3.25;;;15.50;99.90;;;;;;5011696;28;20493;-83
2022/07/07 02:11:20;;;;;;;6.65;3.50;;;15.40;99.90;;;;;;5010527;28;20477;-84
2022/07/07 02:13:51;;;;;;;5.82;3.72;;;15.40;99.90;;;;;;5012064;28;20104;-82
2022/07/07 02:16:19;;;;;;;15.68;4.13;;;15.30;99.90;;;;;;5011967;28;20029;-84
2022/07/07 02:18:46;;;;;;;7.03;3.33;;;15.20;99.90;;;;;;5011578;28;20481;-83
2022/07/07 02:21:13;;;;;;;3.88;3.58;;;15.10;99.90;;;;;;5009762;28;20030;-84
2022/07/07 02:23:43;;;;;;;10.30;3.97;;;15.10;99.90;;;;;;5011111;28;20326;-83
2022/07/07 02:26:09;;;;;;;7.82;3.85;;;15.00;99.90;;;;;;5011145;28;20380;-82
2022/07/07 02:28:34;;;;;;;6.03;4.05;;;15.00;99.90;;;;;;5011016;28;20556;-82
2022/07/07 02:31:00;;;;;;;9.93;4.13;;;14.90;99.90;;;;;;5011024;28;20022;-83
2022/07/07 02:33:27;;;;;;;6.72;3.67;;;14.80;99.90;;;;;;5009215;28;20049;-85
2022/07/07 02:35:54;;;;;;;12.30;4.25;;;14.80;99.90;;;;;;5008701;28;20033;-82
2022/07/07 02:38:21;;;;;;;9.77;4.25;;;14.70;99.90;;;;;;5011606;28;20366;-82
2022/07/07 02:40:47;;;;;;;6.00;3.55;;;14.70;99.90;;;;;;5010998;28;20021;-83
2022/07/07 02:43:13;;;;;;;10.88;4.55;;;14.70;99.90;;;;;;5010289;28;20393;-83
2022/07/07 02:45:44;;;;;;;15.80;4.38;;;14.70;99.90;;;;;;5011449;28;20461;-84
2022/07/07 02:48:11;;;;;;;9.18;5.60;;;14.70;99.90;;;;;;5012041;28;20084;-82
2022/07/07 02:50:37;;;;;;;10.20;4.63;;;14.60;99.90;;;;;;5011495;28;20022;-84
2022/07/07 02:53:03;;;;;;;14.07;4.28;;;14.50;99.90;;;;;;5013286;28;20373;-82
2022/07/07 02:55:30;;;;;;;9.27;4.25;;;14.50;99.90;;;;;;5012732;28;20026;-83
2022/07/07 02:58:00;;;;;;;4.70;3.80;;;14.50;99.90;;;;;;5013552;28;20017;-83
2022/07/07 03:00:27;;;;;;;8.07;4.05;;;14.50;99.90;;;;;;5012922;28;20650;-84
2022/07/07 03:02:54;;;;;;;7.95;4.40;;;14.50;99.90;;;;;;5010127;28;20034;-83
2022/07/07 03:05:21;;;;;;;7.80;4.00;;;14.50;99.90;;;;;;5013376;28;20416;-83
2022/07/07 03:07:46;;;;;;;7.00;3.40;;;14.60;99.90;;;;;;5011089;28;20042;-84
2022/07/07 03:10:12;;;;;;;4.63;3.50;;;14.70;99.90;;;;;;5010115;28;20037;-82
2022/07/07 03:12:38;;;;;;;7.25;3.92;;;14.90;99.90;;;;;;5026164;28;20030;-83
2022/07/07 03:15:04;;;;;;;4.93;3.53;;;15.10;99.90;;;;;;5010371;28;20026;-83
2022/07/07 03:17:29;;;;;;;8.65;3.53;;;15.20;99.90;;;;;;5024041;28;20571;-83
2022/07/07 03:19:55;;;;;;;7.68;3.25;;;15.40;99.90;;;;;;5007966;28;20026;-83
2022/07/07 03:22:21;;;;;;;3.45;3.15;;;15.50;99.90;;;;;;5011227;28;20026;-82
2022/07/07 03:24:46;;;;;;;6.20;3.20;;;15.50;99.90;;;;;;5012872;28;20101;-82
2022/07/07 03:27:12;;;;;;;8.65;3.47;;;15.60;99.90;;;;;;5010849;28;20026;-84
2022/07/07 03:29:38;;;;;;;5.07;4.00;;;15.70;99.90;;;;;;5011724;28;20539;-82
2022/07/07 03:32:04;;;;;;;2.92;2.67;;;15.80;99.90;;;;;;5012575;28;20022;-83
2022/07/07 03:34:30;;;;;;;6.43;3.60;;;15.80;99.90;;;;;;5011862;28;20018;-82
2022/07/07 03:36:56;;;;;;;6.38;3.33;;;15.80;99.90;;;;;;5012963;28;20029;-82
2022/07/07 03:39:22;;;;;;;4.65;3.05;;;15.70;99.90;;;;;;5012755;28;20018;-84
2022/07/07 03:41:48;;;;;;;8.63;3.30;;;15.70;99.90;;;;;;5010564;28;20069;-81
2022/07/07 03:44:14;;;;;;;6.38;2.90;;;15.80;99.90;;;;;;5012807;28;20032;-83
2022/07/07 03:46:40;;;;;;;6.22;3.03;;;15.90;99.90;;;;;;5010824;28;20018;-82
2022/07/07 03:49:05;;;;;;;10.48;3.22;;;15.80;99.90;;;;;;5015554;28;20036;-85
2022/07/07 03:51:31;;;;;;;5.93;3.80;;;15.90;99.90;;;;;;5016484;28;20511;-81
2022/07/07 03:53:57;;;;;;;3.78;2.90;;;15.90;99.90;;;;;;5014556;28;20595;-84
2022/07/07 03:56:23;;;;;;;6.18;3.28;;;16.10;99.90;;;;;;5015908;28;20105;-82
2022/07/07 03:58:48;;;;;;;8.85;3.40;;;16.20;99.90;;;;;;5015812;28;20064;-83
2022/07/07 04:01:14;;;;;;;5.45;2.90;;;16.10;99.90;;;;;;5014532;28;20034;-83
2022/07/07 04:03:40;;;;;;;3.25;2.95;;;16.10;99.90;;;;;;5013148;28;20128;-82
2022/07/07 04:06:06;;;;;;;5.88;2.65;;;16.20;99.90;;;;;;5014348;28;20022;-82
2022/07/07 04:08:31;;;;;;;11.60;3.47;;;16.30;99.90;;;;;;5014162;28;20028;-84
2022/07/07 04:10:57;;;;;;;3.83;3.20;;;16.20;99.90;;;;;;5014240;28;20030;-82
2022/07/07 04:13:23;;;;;;;6.05;3.28;;;16.40;99.90;;;;;;5012781;28;20026;-83
2022/07/07 04:15:49;;;;;;;10.15;2.70;;;16.40;99.90;;;;;;5014111;28;20026;-82
2022/07/07 04:18:15;;;;;;;8.77;2.63;;;16.30;99.90;;;;;;5012858;28;20022;-84
2022/07/07 04:20:40;;;;;;;6.90;2.75;;;16.30;99.90;;;;;;5012635;28;20021;-82
2022/07/07 04:23:06;;;;;;;5.32;2.80;;;16.20;99.90;;;;;;5012520;28;20076;-83
2022/07/07 04:25:32;;;;;;;7.38;3.47;;;16.30;99.90;;;;;;5013904;28;20022;-82
2022/07/07 04:27:58;;;;;;;4.40;2.78;;;16.30;99.90;;;;;;5012493;28;20022;-83
2022/07/07 04:30:23;;;;;;;3.22;2.60;;;16.40;99.90;;;;;;5013922;28;20018;-83
2022/07/07 04:32:49;;;;;;;4.25;3.13;;;16.30;99.90;;;;;;5012339;28;20476;-82
2022/07/07 04:35:15;;;;;;;5.32;2.30;;;16.30;99.90;;;;;;5014312;28;20391;-83
2022/07/07 04:37:41;;;;;;;5.90;2.90;;;16.30;99.90;;;;;;5013257;28;20034;-81
2022/07/07 04:40:07;;;;;;;7.00;2.83;;;16.40;99.90;;;;;;5013961;28;20018;-82
2022/07/07 04:42:33;;;;;;;8.88;3.53;;;16.50;99.90;;;;;;5013394;28;20065;-81
2022/07/07 04:44:58;;;;;;;4.75;2.90;;;16.50;99.90;;;;;;5013837;28;20049;-82
2022/07/07 04:47:24;;;;;;;6.90;2.95;;;16.50;99.90;;;;;;5011854;28;20133;-83
2022/07/07 04:49:53;;;;;;;7.85;2.80;;;16.60;99.90;;;;;;5012208;28;20026;-82
2022/07/07 04:52:19;;;;;;;7.50;3.10;;;16.70;99.90;;;;;;5013171;28;20030;-83
2022/07/07 04:54:45;;;;;;;5.88;3.40;;;16.70;99.90;;;;;;5013486;28;20280;-83
2022/07/07 04:57:11;;;;;;;6.60;2.63;;;16.70;99.90;;;;;;5013302;28;20061;-81
2022/07/07 04:59:36;;;;;;;6.60;3.40;;;16.70;99.90;;;;;;5011625;28;20052;-82
2022/07/07 05:02:02;;;;;;;4.13;3.08;;;16.70;99.90;;;;;;5013101;28;20033;-82
2022/07/07 05:04:28;;;;;;;5.75;2.58;;;16.80;99.90;;;;;;5012914;28;20018;-83
2022/07/07 05:06:54;;;;;;;7.10;3.03;;;16.70;99.90;;;;;;5012981;28;20129;-83
2022/07/07 05:09:19;;;;;;;11.02;3.20;;;16.70;99.90;;;;;;5012869;28;20477;-84
2022/07/07 05:11:46;;;;;;;6.22;3.00;;;16.80;99.90;;;;;;5012777;28;20469;-82
2022/07/07 05:14:12;;;;;;;3.95;2.83;;;16.90;99.90;;;;;;5012945;28;20112;-82
2022/07/07 05:16:39;;;;;;;7.45;2.85;;;16.80;99.90;;;;;;5012698;28;20227;-82
2022/07/07 05:19:05;;;;;;;17.10;3.28;;;16.90;99.90;;;;;;5028103;28;20022;-83
2022/07/07 05:21:31;;;;;;;9.90;2.63;;;16.90;99.90;;;;;;5010934;28;20034;-81
2022/07/07 05:23:58;;;;;;;12.82;3.00;;;17.00;99.90;;;;;;5012873;28;20030;-81
2022/07/07 05:26:24;;;;;;;10.68;2.70;;;17.00;99.90;;;;;;5012861;28;20104;-84
2022/07/07 05:28:50;;;;;;;7.93;3.42;;;17.10;99.90;;;;;;5012585;28;20109;-81
2022/07/07 05:31:16;;;;;;;3.00;2.50;;;17.00;99.90;;;;;;5012762;28;20025;-83
2022/07/07 05:33:44;;;;;;;6.72;3.83;;;17.10;99.90;;;;;;5010861;28;20040;-82
2022/07/07 05:36:10;;;;;;;4.53;2.85;;;17.00;99.90;;;;;;5012468;28;20496;-82
2022/07/07 05:38:37;;;;;;;4.38;3.13;;;17.00;99.90;;;;;;5011207;28;20034;-81
2022/07/07 05:41:04;;;;;;;5.00;2.97;;;17.00;99.90;;;;;;5012493;28;20076;-83
2022/07/07 05:43:30;;;;;;;4.20;2.80;;;17.00;99.90;;;;;;5012636;28;20076;-84
2022/07/07 05:45:56;;;;;;;7.85;2.97;;;16.90;99.90;;;;;;5010845;28;20401;-81
2022/07/07 05:48:22;;;;;;;3.00;2.70;;;16.90;99.90;;;;;;5012148;28;20104;-82
2022/07/07 05:50:47;;;;;;;5.80;2.70;;;16.90;99.90;;;;;;5010645;28;20033;-82
2022/07/07 05:53:14;;;;;;;5.00;2.90;;;16.80;99.90;;;;;;5010954;28;20026;-81
2022/07/07 05:55:41;;;;;;;6.32;2.55;;;16.90;99.90;;;;;;5012025;28;20026;-81
2022/07/07 05:58:07;;;;;;;4.57;2.83;;;17.00;99.90;;;;;;5012557;28;20076;-82
2022/07/07 06:00:33;;;;;;;7.35;2.70;;;17.00;99.90;;;;;;5027060;28;20444;-83
2022/07/07 06:02:59;;;;;;;5.90;3.03;;;17.00;99.90;;;;;;5011909;28;20079;-84
2022/07/07 06:05:25;;;;;;;13.02;2.95;;;17.10;99.90;;;;;;5010351;28;20437;-82
2022/07/07 06:07:52;;;;;;;4.72;3.40;;;17.10;99.90;;;;;;5011576;28;20040;-83
2022/07/07 06:10:18;;;;;;;8.13;2.70;;;17.10;99.90;;;;;;5010674;28;20024;-83
2022/07/07 06:12:44;;;;;;;6.70;2.90;;;17.00;99.90;;;;;;5011907;28;20030;-83
2022/07/07 06:15:11;;;;;;;9.57;4.50;;;17.00;99.90;;;;;;5010817;28;20058;-83
2022/07/07 06:17:37;;;;;;;3.97;3.05;;;17.10;99.90;;;;;;5010305;28;20437;-84
2022/07/07 06:20:03;;;;;;;3.70;2.70;;;17.20;99.90;;;;;;5010568;28;20030;-83
2022/07/07 06:22:29;;;;;;;3.40;3.03;;;17.30;99.90;;;;;;5009860;28;20034;-83
2022/07/07 06:24:55;;;;;;;3.85;3.45;;;17.40;99.90;;;;;;5010312;28;20030;-82
2022/07/07 06:27:22;;;;;;;5.15;3.70;;;17.40;99.90;;;;;;5010420;28;20087;-83
2022/07/07 06:29:48;;;;;;;3.15;2.85;;;17.50;99.90;;;;;;5011621;28;20025;-82
2022/07/07 06:32:15;;;;;;;5.88;3.15;;;17.60;99.90;;;;;;5011464;28;20185;-81
2022/07/07 06:34:42;;;;;;;7.18;2.50;;;17.50;99.90;;;;;;5026507;28;20058;-82
2022/07/07 06:37:08;;;;;;;6.85;2.70;;;17.70;99.90;;;;;;5010245;28;20018;-83
2022/07/07 06:39:34;;;;;;;3.67;2.60;;;17.60;99.90;;;;;;5011370;28;20018;-82
2022/07/07 06:42:01;;;;;;;4.40;2.88;;;17.70;99.90;;;;;;5011360;28;20026;-81
2022/07/07 06:44:30;;;;;;;7.97;3.67;;;17.70;99.60;;;;;;5011288;28;20022;-81
2022/07/07 06:47:00;;;;;;;6.40;2.70;;;17.70;99.40;;;;;;5009521;28;20135;-81
2022/07/07 06:49:27;;;;;;;10.35;2.75;;;17.70;99.80;;;;;;5011309;28;20022;-83
2022/07/07 06:51:54;;;;;;;6.82;2.90;;;18.00;99.90;;;;;;5010036;28;20026;-83
2022/07/07 06:54:20;;;;;;;4.93;2.80;;;18.10;99.80;;;;;;5011743;28;20044;-83
2022/07/07 06:56:46;;;;;;;13.48;2.75;;;18.20;99.90;;;;;;5009841;28;20524;-82
2022/07/07 06:59:12;;;;;;;4.65;2.60;;;18.20;98.60;;;;;;5011184;28;20168;-82
2022/07/07 07:01:38;;;;;;;5.88;2.35;;;18.40;98.60;;;;;;5010740;28;20087;-83
2022/07/07 07:04:07;;;;;;;7.85;2.55;;;18.50;99.50;;;;;;5009643;28;20034;-81
2022/07/07 07:06:34;;;;;;;7.25;2.78;;;18.50;98.40;;;;;;5024473;28;20034;-81
2022/07/07 07:08:59;;;;;;;4.30;2.50;;;18.50;98.40;;;;;;5009686;28;20026;-83
2022/07/07 07:11:26;;;;;;;4.70;2.50;;;18.50;98.50;;;;;;5009139;28;20036;-81
2022/07/07 07:13:52;;;;;;;11.60;3.00;;;18.50;98.60;;;;;;5010717;28;20025;-83
2022/07/07 07:16:20;;;;;;;6.70;2.50;;;18.50;99.30;;;;;;5011140;28;20500;-84
2022/07/07 07:18:46;;;;;;;5.72;3.15;;;18.60;98.20;;;;;;4999014;28;20029;-83
2022/07/07 07:21:13;;;;;;;10.48;2.95;;;18.30;97.70;;;;;;5001184;28;20355;-82
2022/07/07 07:23:39;;;;;;;8.15;2.50;;;18.60;99.00;;;;;;5012863;28;20034;-83
2022/07/07 07:26:06;;;;;;;7.60;2.42;;;18.80;97.80;;;;;;5013186;28;20106;-81
2022/07/07 07:28:33;;;;;;;3.88;2.80;;;19.00;98.10;;;;;;5015688;28;20041;-82
2022/07/07 07:30:59;;;;;;;3.80;2.88;;;18.90;96.60;;;;;;4998023;28;20030;-82
2022/07/07 07:33:25;;;;;;;9.52;3.08;;;19.40;96.90;;;;;;5005818;28;20396;-81
2022/07/07 07:35:50;;;;;;;4.25;2.30;;;19.80;97.40;;;;;;5014083;28;20022;-81
2022/07/07 07:38:16;;;;;;;7.85;2.33;;;20.00;97.20;;;;;;5014961;28;20499;-84
2022/07/07 07:40:44;;;;;;;4.22;2.45;;;19.70;95.70;;;;;;5013546;28;20026;-82
2022/07/07 07:43:10;;;;;;;4.07;2.97;;;19.90;96.00;;;;;;5014329;28;20018;-84
2022/07/07 07:45:37;;;;;;;3.00;2.08;;;19.50;94.90;;;;;;5013470;28;20318;-82
2022/07/07 07:48:03;;;;;;;12.00;3.10;;;19.90;95.60;;;;;;5013160;28;20053;-84
2022/07/07 07:50:30;;;;;;;6.68;2.42;;;20.10;94.80;;;;;;5014558;28;20359;-82
2022/07/07 07:52:56;;;;;;;2.85;2.00;;;20.10;94.50;;;;;;5014509;28;20140;-82
2022/07/07 07:55:23;;;;;;;4.22;2.15;;;19.80;95.10;;;;;;5012892;28;20025;-81
2022/07/07 07:57:50;;;;;;;2.63;1.77;;;20.10;95.20;;;;;;5012990;28;20425;-84
2022/07/07 08:00:19;;;;;;;3.38;2.08;;;20.30;96.40;;;;;;5013199;28;20029;-84
2022/07/07 08:02:47;;;;;;;3.92;1.98;;;20.10;93.60;;;;;;5013646;28;20334;-83
2022/07/07 08:05:14;;;;;;;2.97;1.70;;;20.00;94.30;;;;;;5014486;28;20120;-81
2022/07/07 08:07:42;;;;;;;7.45;2.03;;;19.90;92.50;;;;;;5014226;28;20030;-81
2022/07/07 08:10:10;;;;;;;7.20;2.35;;;19.70;92.10;;;;;;5012979;28;20071;-82
2022/07/07 08:12:36;;;;;;;5.20;2.15;;;19.80;93.40;;;;;;5013963;28;20069;-82
2022/07/07 08:15:02;;;;;;;8.43;2.28;;;19.70;92.80;;;;;;5028918;28;20030;-81
2022/07/07 08:17:28;;;;;;;3.83;2.45;;;19.50;92.50;;;;;;5014039;28;20292;-81
2022/07/07 08:19:54;;;;;;;10.60;2.65;;;19.20;93.10;;;;;;5012735;28;20076;-82
2022/07/07 08:22:20;;;;;;;5.32;2.25;;;19.00;93.70;;;;;;5013950;28;20400;-83
2022/07/07 08:24:46;;;;;;;6.50;2.55;;;18.80;93.90;;;;;;5012544;28;20026;-81
2022/07/07 08:27:11;;;;;;;6.40;2.30;;;18.50;94.70;;;;;;5013838;28;20018;-82
2022/07/07 08:29:38;;;;;;;5.30;3.25;;;18.50;95.20;;;;;;5013536;28;20025;-84
2022/07/07 08:32:07;;;;;;;8.77;2.90;;;18.50;96.00;;;;;;5013961;28;20017;-82
2022/07/07 08:34:33;;;;;;;4.05;2.55;;;18.50;95.20;;;;;;5013265;28;20036;-83
2022/07/07 08:36:59;;;;;;;6.50;2.47;;;18.20;95.40;;;;;;5012431;28;20520;-82
2022/07/07 08:39:24;;;;;;;5.90;2.03;;;18.20;97.20;;;;;;5013444;28;20030;-85
2022/07/07 08:41:50;;;;;;;6.13;3.03;;;18.20;96.00;;;;;;5013304;28;20101;-84
2022/07/07 08:44:18;;;;;;;10.85;3.38;;;18.20;97.90;;;;;;5013681;28;20025;-83
2022/07/07 08:46:44;;;;;;;7.93;2.90;;;18.10;99.90;;;;;;5013172;28;20022;-84
2022/07/07 08:49:10;;;;;;;7.47;2.92;;;18.10;99.90;;;;;;5013488;28;20026;-84
2022/07/07 08:51:44;;;;;;;2.90;2.50;;;18.30;99.90;;;;;;5013693;28;20049;-83
2022/07/07 08:54:12;;;;;;;5.40;3.05;;;18.30;99.90;;;;;;5013334;28;20097;-85
2022/07/07 08:56:40;;;;;;;2.72;2.53;;;18.30;99.90;;;;;;5012616;28;20380;-83
2022/07/07 08:59:07;;;;;;;5.70;3.63;;;18.50;99.90;;;;;;5013457;28;20026;-85
2022/07/07 09:01:34;;;;;;;5.38;2.97;;;18.70;99.90;;;;;;5013053;28;20143;-85
2022/07/07 09:04:02;;;;;;;5.00;2.60;;;18.70;99.80;;;;;;5012968;28;20045;-84
2022/07/07 09:06:28;;;;;;;3.25;2.83;;;18.90;99.90;;;;;;5013065;28;20428;-85
2022/07/07 09:08:55;;;;;;;6.35;2.45;;;19.10;99.90;;;;;;5013002;28;20060;-82
2022/07/07 09:11:39;;;;;;;5.18;3.10;;;19.60;99.70;;;;;;5011756;28;20030;-82
2022/07/07 09:14:16;;;;;;;4.85;2.90;;;19.70;99.70;;;;;;5013168;28;20105;-82
2022/07/07 09:16:42;;;;;;;3.25;2.40;;;19.90;98.60;;;;;;5027728;28;20018;-85
2022/07/07 09:19:21;;;;;;;7.20;3.05;;;19.90;97.70;;;;;;5027910;28;20052;-83
2022/07/07 09:21:47;;;;;;;12.15;3.22;;;19.50;95.30;;;;;;5012738;28;20073;-82
2022/07/07 09:24:14;;;;;;;4.00;2.42;;;19.50;95.60;;;;;;5028037;28;20036;-84
2022/07/07 09:26:54;;;;;;;4.05;2.70;;;19.90;96.10;;;;;;5012425;28;20088;-82
2022/07/07 09:29:22;;;;;;;5.68;2.70;;;19.50;95.20;;;;;;5012566;28;20497;-83
2022/07/07 09:31:55;;;;;;;6.60;2.78;;;19.30;95.20;;;;;;5011418;28;20033;-83
2022/07/07 09:34:23;;;;;;;13.98;2.97;;;19.30;96.50;;;;;;5012187;28;20068;-83
2022/07/07 09:39:46;;;;;;;6.07;2.42;;;20.10;94.10;;;;;;5012594;28;20114;-84
2022/07/07 09:42:21;;;;;;;7.88;2.70;;;20.40;94.00;;;;;;5011062;28;20022;-82
2022/07/07 09:44:54;;;;;;;10.68;2.22;;;20.30;92.30;;;;;;5010698;28;20022;-81
2022/07/07 09:47:21;;;;;;;2.60;2.22;;;19.80;92.20;;;;;;5012555;28;20449;-82
2022/07/07 09:50:00;;;;;;;9.98;3.30;;;19.90;93.50;;;;;;5011862;28;20030;-82
2022/07/07 09:52:26;;;;;;;4.95;2.28;;;19.90;92.10;;;;;;5012559;28;20509;-81
2022/07/07 09:54:54;;;;;;;3.35;1.88;;;19.60;92.90;;;;;;5010936;28;20437;-83
2022/07/07 09:57:20;;;;;;;5.85;2.20;;;20.00;93.40;;;;;;5011962;28;20025;-82
2022/07/07 09:59:46;;;;;;;14.38;2.50;;;19.90;93.00;;;;;;5010873;28;20026;-84
2022/07/07 10:02:23;;;;;;;7.93;2.33;;;19.80;93.70;;;;;;5012167;28;20028;-81
2022/07/07 10:04:59;;;;;;;3.85;2.00;;;19.40;92.30;;;;;;5011779;28;20021;-82
2022/07/07 10:07:28;;;;;;;4.60;2.28;;;19.30;94.10;;;;;;5012000;28;20053;-85
2022/07/07 10:09:56;;;;;;;4.13;2.28;;;19.20;93.20;;;;;;5011983;28;20013;-82
2022/07/07 10:12:27;;;;;;;9.70;2.38;;;19.30;94.00;;;;;;5011743;28;20022;-83
2022/07/07 10:15:01;;;;;;;3.25;2.28;;;19.30;93.30;;;;;;5010403;28;20084;-83
2022/07/07 10:17:28;;;;;;;13.77;2.25;;;19.60;93.10;;;;;;5011834;28;20428;-82
2022/07/07 10:19:55;;;;;;;7.18;2.55;;;19.60;92.90;;;;;;5007238;28;20029;-85
2022/07/07 10:22:27;;;;;;;3.20;2.00;;;19.80;92.70;;;;;;5001052;28;20030;-82
2022/07/07 10:25:00;;;;;;;12.23;3.00;;;20.30;95.10;;;;;;5000026;28;20492;-82
2022/07/07 10:27:30;;;;;;;7.05;2.15;;;20.00;91.20;;;;;;4998232;28;20129;-81
2022/07/07 10:30:03;;;;;;;9.80;3.28;;;19.70;92.00;;;;;;4992171;28;20025;-84
2022/07/07 10:32:32;;;;;;;5.57;3.00;;;19.70;92.50;;;;;;4991137;28;20030;-84
2022/07/07 10:35:05;;;;;;;7.63;2.47;;;19.30;93.00;;;;;;4990377;28;20042;-82
2022/07/07 10:37:42;;;;;;;3.72;2.70;;;19.20;92.20;;;;;;4991657;28;20030;-84
2022/07/07 10:40:18;;;;;;;6.13;3.00;;;19.20;94.00;;;;;;4990746;28;20026;-83
2022/07/07 10:42:50;;;;;;;7.47;3.05;;;19.30;93.60;;;;;;5001954;28;20037;-82
2022/07/07 10:45:17;;;;;;;3.78;2.30;;;19.10;95.60;;;;;;5010983;28;20026;-81
2022/07/07 10:47:43;;;;;;;8.10;2.47;;;19.40;95.20;;;;;;5026274;28;20374;-81
2022/07/07 10:50:34;;;;;;;3.42;2.53;;;19.50;93.60;;;;;;5011164;28;20029;-81
2022/07/07 10:53:01;;;;;;;2.45;2.25;;;19.20;93.90;;;;;;5006370;28;20112;-83
2022/07/07 10:56:02;;;;;;;2.97;2.40;;;19.20;94.20;;;;;;5011422;28;20362;-84
2022/07/07 10:58:53;;;;;;;4.88;2.35;;;19.20;94.40;;;;;;4978204;28;20026;-83
2022/07/07 11:01:20;;;;;;;8.02;2.90;;;19.20;93.80;;;;;;5011121;28;20029;-82
2022/07/07 11:03:46;;;;;;;4.05;2.40;;;19.00;93.20;;;;;;5011055;28;20038;-83
2022/07/07 11:06:12;;;;;;;7.13;2.65;;;19.00;93.90;;;;;;5010891;28;20523;-81
2022/07/07 11:08:38;;;;;;;4.88;2.88;;;18.90;94.00;;;;;;5010892;28;20018;-84
2022/07/07 11:11:06;;;;;;;6.68;2.80;;;18.90;94.60;;;;;;5011456;28;20381;-81
2022/07/07 11:13:42;;;;;;;4.50;3.17;;;18.80;95.20;;;;;;5011398;28;20539;-82
2022/07/07 11:16:23;;;;;;;6.60;3.47;;;18.40;96.00;;;;;;5010239;28;20034;-82
2022/07/07 11:18:58;;;;;;;6.25;4.05;;;18.10;97.50;;;;;;5009684;28;20100;-82
2022/07/07 11:21:41;;;;;;;7.13;3.65;;;17.80;98.40;;;;;;5011158;28;20485;-86
2022/07/07 11:24:20;;;;;;;7.57;3.25;;;17.70;99.90;;;;;;5010115;28;20053;-84
2022/07/07 11:27:01;;;;;;;6.10;3.45;;;17.70;99.90;;;;;;5010063;28;20049;-83
2022/07/07 11:29:28;;;;;;;10.10;4.38;;;17.70;99.90;;;;;;5010190;28;20030;-81
2022/07/07 11:32:08;;;;;;;7.40;4.53;;;17.80;99.90;;;;;;5011482;28;20077;-82
2022/07/07 11:34:48;;;;;;;7.60;4.05;;;17.80;99.90;;;;;;5010149;28;20381;-87
2022/07/07 11:37:27;;;;;;;9.70;3.60;;;18.10;99.90;;;;;;5010791;28;20428;-84
2022/07/07 11:39:55;;;;;;;6.82;3.90;;;18.40;99.90;;;;;;5009394;28;20057;-81
2022/07/07 11:42:21;;;;;;;9.50;3.58;;;18.50;99.90;;;;;;5010402;28;20025;-84
2022/07/07 11:44:47;;;;;;;6.65;3.55;;;18.40;99.90;;;;;;5025616;28;20132;-86
2022/07/07 11:47:15;;;;;;;5.57;3.38;;;18.70;99.90;;;;;;5009017;28;20050;-85
2022/07/07 11:50:00;;;;;;;4.88;3.28;;;18.50;99.90;;;;;;5010753;28;20022;-82
2022/07/07 11:52:27;;;;;;;7.93;3.80;;;18.50;99.90;;;;;;5011003;28;20037;-84
2022/07/07 11:54:53;;;;;;;7.78;3.63;;;18.20;99.90;;;;;;5009452;28;20048;-84
2022/07/07 11:57:28;;;;;;;5.78;3.95;;;18.20;99.90;;;;;;5009280;28;20026;-84
2022/07/07 11:59:55;;;;;;;7.57;3.28;;;18.10;99.90;;;;;;5009328;28;20083;-82
2022/07/07 12:02:23;;;;;;;7.07;4.05;;;18.00;99.90;;;;;;5010279;28;20026;-85
2022/07/07 12:04:53;;;;;;;6.63;3.42;;;17.80;99.90;;;;;;5010754;28;20361;-84
2022/07/07 12:07:19;;;;;;;8.77;4.68;;;17.40;99.90;;;;;;5009439;28;20376;-84
2022/07/07 12:09:47;;;;;;;5.95;4.00;;;17.20;99.90;;;;;;5013996;28;20570;-82
2022/07/07 12:12:18;;;;;;;15.32;4.28;;;17.40;99.90;;;;;;5012862;28;20025;-83
2022/07/07 12:14:44;;;;;;;6.35;3.63;;;17.50;99.90;;;;;;5013898;28;20018;-85
2022/07/07 12:17:11;;;;;;;7.43;4.50;;;17.70;99.90;;;;;;5014102;28;20160;-82
2022/07/07 12:19:50;;;;;;;5.35;4.00;;;17.60;99.90;;;;;;5007369;28;20023;-84
2022/07/07 12:22:34;;;;;;;8.25;4.07;;;17.70;99.90;;;;;;4995112;28;20022;-81
2022/07/07 12:25:06;;;;;;;7.43;3.78;;;17.90;99.90;;;;;;4994428;28;20367;-84
2022/07/07 12:27:32;;;;;;;5.57;3.35;;;18.10;99.90;;;;;;4993859;28;20029;-85
2022/07/07 12:30:02;;;;;;;8.15;3.80;;;18.00;99.90;;;;;;4994326;28;20076;-84
2022/07/07 12:32:28;;;;;;;8.25;3.78;;;18.20;99.90;;;;;;4992085;28;20030;-83
2022/07/07 12:34:56;;;;;;;5.95;3.97;;;18.10;99.90;;;;;;4994180;28;20030;-84
2022/07/07 12:37:40;;;;;;;7.47;3.88;;;18.00;99.90;;;;;;4994566;28;20109;-81
2022/07/07 12:40:10;;;;;;;7.82;3.10;;;18.00;99.90;;;;;;5013747;28;20032;-81
2022/07/07 12:42:36;;;;;;;4.00;2.60;;;18.20;99.90;;;;;;5011913;28;20029;-80
2022/07/07 12:45:13;;;;;;;3.75;2.75;;;18.40;99.90;;;;;;5012271;28;20485;-82
2022/07/07 12:47:48;;;;;;;8.13;3.15;;;18.10;99.90;;;;;;5013106;28;20127;-84
2022/07/07 12:50:17;;;;;;;14.45;3.22;;;17.90;99.90;;;;;;5012102;28;20057;-83
2022/07/07 12:53:04;;;;;;;6.60;3.47;;;17.60;99.90;;;;;;5011669;28;20563;-83